Time;durP1;ratioP1;P1;durP2;ratioP2;P2;SDS_P1;SDS_P2;PMS_P1;PMS_P2;Temp;Humidity;BMP_temperature;BMP_pressure;BME280_temperature;BME280_humidity;BME280_pressure;Samples;Min_cycle;Max_cycle;Signal;HPM_P1;HPM_P2
2022/10/02 00:02:02;;;;;;;3.73;1.43;;;;;;;11.18;100.00;100552.09;5052174;28;20489;-71
2022/10/02 00:04:37;;;;;;;5.03;1.70;;;;;;;11.24;100.00;100556.28;5054280;28;20466;-71
2022/10/02 00:07:06;;;;;;;6.70;1.50;;;;;;;11.25;100.00;100557.13;5052195;28;20964;-70
2022/10/02 00:09:40;;;;;;;4.10;1.10;;;;;;;11.23;100.00;100560.13;5051084;28;20482;-70
2022/10/02 00:12:10;;;;;;;4.23;1.30;;;;;;;11.21;100.00;100558.84;5051527;28;20482;-71
2022/10/02 00:14:40;;;;;;;7.40;2.30;;;;;;;11.23;100.00;100554.69;5052586;28;20462;-70
2022/10/02 00:17:09;;;;;;;9.50;1.50;;;;;;;11.23;100.00;100554.69;5052305;28;20462;-70
2022/10/02 00:19:36;;;;;;;4.40;1.50;;;;;;;11.21;100.00;100548.78;5051259;28;20473;-70
2022/10/02 00:22:16;;;;;;;7.03;1.83;;;;;;;11.25;100.00;100555.19;5052370;28;20490;-70
2022/10/02 00:24:50;;;;;;;3.40;1.07;;;;;;;11.27;100.00;100550.25;5052965;28;20476;-71
2022/10/02 00:27:38;;;;;;;4.13;1.30;;;;;;;11.30;100.00;100557.78;5051884;28;20461;-71
2022/10/02 00:30:06;;;;;;;3.63;0.97;;;;;;;11.27;100.00;100557.59;5051412;28;20462;-71
2022/10/02 00:32:40;;;;;;;7.90;1.60;;;;;;;11.28;100.00;100560.00;5050682;28;20493;-70
2022/10/02 00:35:39;;;;;;;7.93;1.67;;;;;;;11.29;100.00;100569.75;5051915;28;20453;-70
2022/10/02 00:38:15;;;;;;;4.97;1.53;;;;;;;11.25;100.00;100565.25;5047031;28;20946;-70
2022/10/02 00:41:10;;;;;;;3.80;1.20;;;;;;;11.25;100.00;100570.66;5052048;28;21005;-71
2022/10/02 00:43:47;;;;;;;7.23;1.30;;;;;;;11.27;100.00;100574.66;5050766;28;20543;-71
2022/10/02 00:46:32;;;;;;;4.50;1.53;;;;;;;11.20;100.00;100577.00;5051740;28;20466;-71
2022/10/02 00:49:10;;;;;;;4.83;1.00;;;;;;;11.19;100.00;100571.88;5051129;28;20461;-71
2022/10/02 00:51:56;;;;;;;5.40;1.60;;;;;;;11.21;100.00;100567.75;5051675;28;20478;-71
2022/10/02 00:54:31;;;;;;;13.20;1.50;;;;;;;11.24;100.00;100575.28;5047820;28;20465;-71
2022/10/02 00:57:08;;;;;;;5.50;1.80;;;;;;;11.15;100.00;100579.00;5050588;28;20950;-71
2022/10/02 00:59:51;;;;;;;6.00;1.60;;;;;;;11.18;100.00;100579.22;5050772;28;20843;-71
2022/10/02 01:02:43;;;;;;;5.47;1.60;;;;;;;11.08;100.00;100579.44;5049537;28;20478;-71
2022/10/02 01:05:10;;;;;;;3.80;1.17;;;;;;;11.07;100.00;100580.56;5052264;28;20540;-71
2022/10/02 01:07:41;;;;;;;3.63;1.13;;;;;;;11.08;100.00;100585.66;5051250;28;20546;-71
2022/10/02 01:10:09;;;;;;;6.87;2.17;;;;;;;11.05;100.00;100590.88;5052075;28;20461;-71
2022/10/02 01:12:37;;;;;;;5.00;1.63;;;;;;;10.98;100.00;100588.59;5052107;28;20482;-71
2022/10/02 01:15:11;;;;;;;9.23;1.53;;;;;;;10.91;100.00;100595.53;5051020;28;20497;-71
2022/10/02 01:17:37;;;;;;;11.63;1.67;;;;;;;10.91;100.00;100590.09;5050358;28;20503;-70
2022/10/02 01:20:07;;;;;;;5.17;1.27;;;;;;;10.93;100.00;100596.00;5052146;28;20466;-70
2022/10/02 01:22:40;;;;;;;4.80;1.43;;;;;;;10.89;100.00;100605.84;5051201;28;20501;-70
2022/10/02 01:25:08;;;;;;;4.37;1.30;;;;;;;10.83;100.00;100605.97;5050451;28;20556;-71
2022/10/02 01:27:36;;;;;;;4.90;1.53;;;;;;;10.88;100.00;100606.97;5050233;28;20462;-71
2022/10/02 01:30:06;;;;;;;4.87;1.50;;;;;;;10.93;100.00;100609.56;5051648;28;20462;-70
2022/10/02 01:32:35;;;;;;;3.80;1.13;;;;;;;10.90;100.00;100610.19;5050171;28;20474;-70
2022/10/02 01:35:02;;;;;;;4.67;1.67;;;;;;;10.91;100.00;100611.78;5052902;28;20450;-70
2022/10/02 01:37:31;;;;;;;4.27;1.23;;;;;;;10.95;100.00;100618.22;5048892;28;20454;-70
2022/10/02 01:40:02;;;;;;;8.60;1.93;;;;;;;10.85;100.00;100625.44;5051097;28;20471;-70
2022/10/02 01:42:30;;;;;;;4.80;1.73;;;;;;;10.82;100.00;100617.91;5050723;28;20520;-70
2022/10/02 01:44:57;;;;;;;6.10;1.00;;;;;;;10.77;100.00;100622.63;5048836;28;20536;-70
2022/10/02 01:47:28;;;;;;;7.00;1.17;;;;;;;10.72;100.00;100626.25;5049433;28;20614;-70
2022/10/02 01:50:12;;;;;;;4.97;1.47;;;;;;;10.74;100.00;100613.19;5052052;28;20438;-70
2022/10/02 01:52:49;;;;;;;4.50;1.50;;;;;;;10.72;100.00;100620.81;5043660;28;20878;-71
2022/10/02 01:55:31;;;;;;;4.37;1.90;;;;;;;10.76;100.00;100612.91;5049344;28;20461;-71
2022/10/02 01:58:15;;;;;;;5.30;1.37;;;;;;;10.74;100.00;100631.34;5049165;28;20454;-71
2022/10/02 02:00:52;;;;;;;4.90;1.30;;;;;;;10.74;100.00;100624.03;5050480;28;20466;-71
2022/10/02 02:03:23;;;;;;;7.70;1.17;;;;;;;10.70;100.00;100630.34;5046204;28;20493;-71
2022/10/02 02:05:55;;;;;;;5.93;1.57;;;;;;;10.70;100.00;100633.84;5050497;28;20481;-70
2022/10/02 02:08:28;;;;;;;5.57;1.70;;;;;;;10.67;100.00;100636.34;5052671;28;20504;-71
2022/10/02 02:11:06;;;;;;;6.13;1.50;;;;;;;10.68;100.00;100632.56;5051768;28;20423;-71
2022/10/02 02:13:44;;;;;;;7.40;2.50;;;;;;;10.68;100.00;100635.28;5051367;28;20891;-71
2022/10/02 02:16:19;;;;;;;5.43;1.30;;;;;;;10.66;100.00;100643.69;5051174;28;20454;-71
2022/10/02 02:18:51;;;;;;;6.73;1.50;;;;;;;10.65;100.00;100638.56;5046924;28;20489;-71
2022/10/02 02:21:23;;;;;;;9.10;1.80;;;;;;;10.65;100.00;100641.28;5050903;28;20524;-71
2022/10/02 02:23:51;;;;;;;4.17;1.00;;;;;;;10.64;100.00;100645.09;5049504;28;20458;-71
2022/10/02 02:26:20;;;;;;;4.70;1.03;;;;;;;10.63;100.00;100648.91;5049813;28;20486;-71
2022/10/02 02:28:53;;;;;;;7.47;1.70;;;;;;;10.64;100.00;100651.31;5050415;28;20842;-71
2022/10/02 02:31:22;;;;;;;5.73;1.37;;;;;;;10.60;100.00;100647.59;5049222;28;20460;-71
2022/10/02 02:33:52;;;;;;;12.13;1.90;;;;;;;10.59;100.00;100651.41;5051975;28;20454;-71
2022/10/02 02:36:23;;;;;;;14.33;1.43;;;;;;;10.57;100.00;100650.91;5052449;28;21024;-70
2022/10/02 02:38:54;;;;;;;7.63;1.50;;;;;;;10.59;100.00;100656.84;5048222;28;21028;-71
2022/10/02 02:41:26;;;;;;;4.90;1.50;;;;;;;10.62;100.00;100653.50;5053248;28;20504;-71
2022/10/02 02:43:59;;;;;;;6.63;1.63;;;;;;;10.58;100.00;100644.38;5054631;28;20461;-71
2022/10/02 02:46:32;;;;;;;5.60;1.43;;;;;;;10.54;100.00;100651.50;5053661;28;21017;-71
2022/10/02 02:49:04;;;;;;;3.63;1.20;;;;;;;10.51;100.00;100646.69;5048355;28;20516;-71
2022/10/02 02:51:36;;;;;;;7.43;1.37;;;;;;;10.47;100.00;100656.50;5051363;28;20455;-70
2022/10/02 02:54:07;;;;;;;5.87;1.63;;;;;;;10.45;100.00;100650.59;5053622;28;20462;-71
2022/10/02 02:56:34;;;;;;;5.17;1.40;;;;;;;10.45;100.00;100653.31;5054060;28;20454;-71
2022/10/02 02:59:06;;;;;;;4.00;1.37;;;;;;;10.44;100.00;100657.91;5053107;28;20951;-70
2022/10/02 03:01:33;;;;;;;4.77;1.10;;;;;;;10.43;100.00;100653.59;5044055;28;20508;-70
2022/10/02 03:03:59;;;;;;;4.40;1.53;;;;;;;10.45;100.00;100662.22;5053290;28;20841;-71
2022/10/02 03:06:32;;;;;;;3.73;1.10;;;;;;;10.38;100.00;100663.72;5054368;28;20493;-71
2022/10/02 03:09:01;;;;;;;5.90;1.43;;;;;;;10.39;100.00;100665.31;5053286;28;20516;-71
2022/10/02 03:11:46;;;;;;;4.60;1.17;;;;;;;10.43;100.00;100669.03;5052727;28;20824;-71
2022/10/02 03:14:40;;;;;;;8.40;1.30;;;;;;;10.45;100.00;100670.34;5037140;28;20428;-71
2022/10/02 03:17:18;;;;;;;4.53;1.33;;;;;;;10.42;100.00;100672.84;5047429;28;20895;-71
2022/10/02 03:19:50;;;;;;;5.20;1.33;;;;;;;10.40;100.00;100673.13;5039032;28;20508;-71
2022/10/02 03:22:25;;;;;;;9.50;1.80;;;;;;;10.44;100.00;100673.34;5051092;28;20481;-71
2022/10/02 03:24:59;;;;;;;12.50;1.90;;;;;;;10.44;100.00;100671.44;5054743;28;20470;-71
2022/10/02 03:27:33;;;;;;;5.97;1.30;;;;;;;10.44;100.00;100667.94;5050897;28;20466;-75
2022/10/02 03:30:05;;;;;;;5.93;1.70;;;;;;;10.38;100.00;100671.84;5046236;28;20962;-76
2022/10/02 03:32:33;;;;;;;6.43;1.33;;;;;;;10.37;100.00;100673.75;5051722;28;21664;-75
2022/10/02 03:35:01;;;;;;;9.93;1.80;;;;;;;10.37;100.00;100667.53;5055056;28;20438;-71
2022/10/02 03:37:28;;;;;;;5.20;1.43;;;;;;;10.33;100.00;100670.03;5052454;28;20454;-69
2022/10/02 03:39:58;;;;;;;7.43;1.80;;;;;;;10.36;100.00;100677.56;5052011;28;20458;-69
2022/10/02 03:42:29;;;;;;;5.60;1.60;;;;;;;10.39;100.00;100682.38;5052245;28;20500;-69
2022/10/02 03:44:56;;;;;;;9.20;1.67;;;;;;;10.41;100.00;100671.25;5049991;28;21100;-69
2022/10/02 03:47:23;;;;;;;6.07;1.20;;;;;;;10.41;100.00;100680.19;5050967;28;20500;-69
2022/10/02 03:49:50;;;;;;;7.03;1.60;;;;;;;10.42;100.00;100676.34;5049651;28;20462;-69
2022/10/02 03:52:18;;;;;;;3.73;0.90;;;;;;;10.40;100.00;100677.75;5052868;28;20540;-69
2022/10/02 03:54:45;;;;;;;4.13;1.33;;;;;;;10.35;100.00;100671.31;5052562;28;20454;-69
2022/10/02 03:57:17;;;;;;;5.70;1.43;;;;;;;10.35;100.00;100681.34;5052863;28;20455;-69
2022/10/02 03:59:48;;;;;;;6.10;1.67;;;;;;;10.41;100.00;100671.25;5051944;28;20970;-69
2022/10/02 04:02:29;;;;;;;5.27;1.40;;;;;;;10.46;100.00;100668.44;5052602;28;20478;-69
2022/10/02 04:05:02;;;;;;;7.33;1.70;;;;;;;10.47;100.00;100672.75;5051880;28;20535;-69
2022/10/02 04:07:32;;;;;;;4.87;1.57;;;;;;;10.50;100.00;100677.59;5051115;28;20447;-69
2022/10/02 04:10:09;;;;;;;6.67;2.13;;;;;;;10.53;100.00;100676.97;5051384;28;20458;-69
2022/10/02 04:12:39;;;;;;;4.73;1.20;;;;;;;10.55;100.00;100681.00;5053223;28;20489;-71
2022/10/02 04:15:16;;;;;;;7.13;2.03;;;;;;;10.60;100.00;100680.09;5051582;28;21014;-71
2022/10/02 04:17:49;;;;;;;6.20;1.43;;;;;;;10.63;100.00;100686.84;5050122;28;20462;-71
2022/10/02 04:20:20;;;;;;;4.97;1.93;;;;;;;10.69;100.00;100689.16;5051731;28;20439;-71
2022/10/02 04:22:52;;;;;;;8.60;1.97;;;;;;;10.68;100.00;100687.53;5049390;28;20478;-70
2022/10/02 04:25:20;;;;;;;3.90;1.20;;;;;;;10.72;100.00;100693.19;5053017;28;20514;-71
2022/10/02 04:27:52;;;;;;;8.10;2.10;;;;;;;10.78;100.00;100690.06;5051223;28;20466;-71
2022/10/02 04:30:20;;;;;;;4.70;1.63;;;;;;;10.89;100.00;100689.84;5052119;28;20458;-71
2022/10/02 04:32:48;;;;;;;5.73;1.53;;;;;;;10.96;100.00;100690.28;5052167;28;20529;-71
2022/10/02 04:35:16;;;;;;;3.50;1.00;;;;;;;10.96;100.00;100698.41;5052428;28;20887;-71
2022/10/02 04:38:01;;;;;;;8.23;1.50;;;;;;;11.00;100.00;100694.00;5052237;28;20839;-70
2022/10/02 04:40:49;;;;;;;9.63;1.80;;;;;;;11.01;100.00;100688.25;5052875;28;20458;-71
2022/10/02 04:43:28;;;;;;;5.97;1.23;;;;;;;11.09;100.00;100694.88;5051732;28;20548;-71
2022/10/02 04:46:08;;;;;;;7.97;2.20;;;;;;;11.08;100.00;100704.13;5052440;28;20866;-71
2022/10/02 04:48:51;;;;;;;4.20;1.30;;;;;;;11.14;100.00;100702.91;5051901;28;20461;-71
2022/10/02 04:51:31;;;;;;;5.53;1.80;;;;;;;11.16;100.00;100699.94;5050601;28;20599;-71
2022/10/02 04:54:41;;;;;;;8.37;1.70;;;;;;;11.13;100.00;100698.59;5041041;28;20806;-71
2022/10/02 04:57:28;;;;;;;7.07;2.20;;;;;;;11.16;100.00;100700.72;5052329;28;20509;-71
2022/10/02 05:00:04;;;;;;;6.20;1.87;;;;;;;11.13;100.00;100697.81;5048927;28;20516;-71
2022/10/02 05:02:49;;;;;;;4.30;1.43;;;;;;;11.10;100.00;100704.63;5050052;28;20542;-71
2022/10/02 05:05:29;;;;;;;5.77;1.50;;;;;;;11.14;100.00;100704.81;5052356;28;20478;-71
2022/10/02 05:08:26;;;;;;;4.80;1.67;;;;;;;11.08;100.00;100701.44;5051958;28;20837;-72
2022/10/02 05:11:06;;;;;;;5.63;1.80;;;;;;;11.03;100.00;100706.94;5050658;28;20454;-71
2022/10/02 05:13:56;;;;;;;6.70;1.27;;;;;;;11.00;100.00;100713.75;5052141;28;20474;-71
2022/10/02 05:16:45;;;;;;;4.80;1.60;;;;;;;11.01;100.00;100719.97;5049548;28;20461;-71
2022/10/02 05:19:26;;;;;;;5.40;1.10;;;;;;;10.96;100.00;100715.47;5051486;28;20450;-71
2022/10/02 05:22:20;;;;;;;5.77;1.50;;;;;;;10.91;100.00;100720.19;5049796;28;20477;-75
2022/10/02 05:25:01;;;;;;;7.80;2.00;;;;;;;10.94;100.00;100719.59;5048901;28;20466;-71
2022/10/02 05:27:50;;;;;;;6.10;1.40;;;;;;;10.94;100.00;100725.00;5049765;28;20453;-71
2022/10/02 05:30:18;;;;;;;6.20;1.53;;;;;;;10.89;100.00;100727.78;5052067;28;20458;-74
2022/10/02 05:33:04;;;;;;;3.93;1.13;;;;;;;10.84;100.00;100726.78;5049859;28;20474;-71
2022/10/02 05:35:46;;;;;;;6.30;1.40;;;;;;;10.89;100.00;100717.78;5049723;28;20454;-71
2022/10/02 05:38:26;;;;;;;4.07;1.20;;;;;;;10.97;100.00;100718.97;5049598;28;20457;-71
2022/10/02 05:41:03;;;;;;;4.70;1.33;;;;;;;10.95;100.00;100713.06;5051408;28;20458;-71
2022/10/02 05:43:40;;;;;;;3.50;1.00;;;;;;;11.02;100.00;100717.00;5047197;28;20912;-71
2022/10/02 05:46:11;;;;;;;7.30;2.10;;;;;;;11.11;100.00;100717.91;5049990;28;20466;-71
2022/10/02 05:48:44;;;;;;;5.03;1.23;;;;;;;11.23;100.00;100736.34;5050582;28;20457;-71
2022/10/02 05:51:18;;;;;;;4.60;1.40;;;;;;;11.39;100.00;100734.16;5050936;28;20462;-70
2022/10/02 05:53:51;;;;;;;6.60;1.60;;;;;;;11.46;100.00;100728.31;5051198;28;20864;-70
2022/10/02 05:56:22;;;;;;;4.33;1.50;;;;;;;11.54;100.00;100716.75;5051509;28;20461;-71
2022/10/02 05:58:53;;;;;;;3.60;1.20;;;;;;;11.55;100.00;100708.31;5040660;28;20459;-71
2022/10/02 06:01:25;;;;;;;5.33;2.30;;;;;;;11.56;100.00;100737.06;5050781;28;20833;-71
2022/10/02 06:04:00;;;;;;;10.23;1.50;;;;;;;11.49;100.00;100731.22;5050444;28;20454;-72
2022/10/02 06:06:33;;;;;;;13.20;1.63;;;;;;;11.47;100.00;100729.94;5050154;28;20476;-71
2022/10/02 06:09:05;;;;;;;6.53;1.87;;;;;;;11.48;100.00;100742.38;5052711;28;20469;-72
2022/10/02 06:11:35;;;;;;;5.50;1.57;;;;;;;11.48;100.00;100736.97;5055160;28;20511;-71
2022/10/02 06:14:09;;;;;;;3.60;1.10;;;;;;;11.49;100.00;100733.13;5055998;28;20461;-72
2022/10/02 06:16:42;;;;;;;8.63;2.10;;;;;;;11.49;100.00;100731.22;5053788;28;20477;-71
2022/10/02 06:19:16;;;;;;;4.80;1.70;;;;;;;11.54;100.00;100741.16;5053464;28;20461;-71
2022/10/02 06:21:50;;;;;;;7.37;2.20;;;;;;;11.54;100.00;100738.44;5055115;28;20480;-71
2022/10/02 06:24:24;;;;;;;3.83;1.27;;;;;;;11.54;100.00;100738.44;5050861;28;20446;-71
2022/10/02 06:26:55;;;;;;;3.53;1.23;;;;;;;11.57;100.00;100748.69;5050891;28;20474;-74
2022/10/02 06:29:28;;;;;;;5.27;1.27;;;;;;;11.54;100.00;100749.28;5053205;28;20454;-71
2022/10/02 06:32:06;;;;;;;6.00;2.13;;;;;;;11.53;100.00;100753.91;5053889;28;20481;-72
2022/10/02 06:34:32;;;;;;;9.20;2.80;;;;;;;11.56;100.00;100747.09;5054162;28;20465;-72
2022/10/02 06:37:27;;;;;;;10.23;1.97;;;;;;;11.55;100.00;100751.72;5049783;28;20461;-73
2022/10/02 06:40:10;;;;;;;5.53;1.93;;;;;;;11.53;100.00;100748.50;5044001;28;20978;-73
2022/10/02 06:42:49;;;;;;;6.20;2.07;;;;;;;11.56;100.00;100758.75;5049838;28;20496;-70
2022/10/02 06:45:26;;;;;;;4.77;1.97;;;;;;;11.62;100.00;100752.09;5050150;28;20544;-70
2022/10/02 06:48:13;;;;;;;5.67;1.77;;;;;;;11.64;100.00;100749.06;5052932;28;20457;-69
2022/10/02 06:50:44;;;;;;;7.60;1.93;;;;;;;11.75;100.00;100755.91;5051096;28;20974;-71
2022/10/02 06:53:25;;;;;;;5.37;1.90;;;;;;;11.79;100.00;100756.09;5054757;28;20474;-71
2022/10/02 06:56:01;;;;;;;5.67;2.20;;;;;;;11.79;100.00;100756.91;5055758;28;20423;-71
2022/10/02 06:58:44;;;;;;;7.33;2.03;;;;;;;11.74;100.00;100753.50;5052668;28;20458;-70
2022/10/02 07:01:21;;;;;;;7.63;2.73;;;;;;;11.75;100.00;100753.19;5052228;28;20805;-71
2022/10/02 07:04:15;;;;;;;8.40;3.00;;;;;;;11.75;100.00;100755.09;5054720;28;20473;-70
2022/10/02 07:06:52;;;;;;;5.67;2.10;;;;;;;11.75;100.00;100761.34;5039917;28;20474;-70
2022/10/02 07:09:44;;;;;;;7.47;2.67;;;;;;;11.77;100.00;100755.59;5054359;28;20458;-70
2022/10/02 07:12:31;;;;;;;7.53;3.00;;;;;;;11.75;100.00;100755.91;5051999;28;20888;-70
2022/10/02 07:15:27;;;;;;;9.10;3.23;;;;;;;11.76;100.00;100757.50;5055504;28;20423;-70
2022/10/02 07:18:05;;;;;;;7.43;2.17;;;;;;;11.79;100.00;100748.75;5043036;28;20438;-69
2022/10/02 07:20:37;;;;;;;5.03;2.17;;;;;;;11.84;100.00;100756.03;5051975;28;20461;-70
2022/10/02 07:23:42;;;;;;;6.17;2.23;;;;;;;11.93;100.00;100762.31;5051087;28;20565;-69
2022/10/02 07:26:25;;;;;;;13.03;3.27;;;;;;;12.04;100.00;100762.88;5051739;28;20486;-70
2022/10/02 07:29:04;;;;;;;7.73;2.70;;;;;;;12.08;100.00;100767.41;5053378;28;20462;-70
2022/10/02 07:31:44;;;;;;;9.33;3.30;;;;;;;12.18;100.00;100769.09;5053756;28;20462;-70
2022/10/02 07:34:25;;;;;;;9.53;3.83;;;;;;;12.31;100.00;100768.25;5052605;28;20462;-70
2022/10/02 07:37:05;;;;;;;21.00;3.63;;;;;;;12.42;100.00;100768.00;5052921;28;20489;-70
2022/10/02 07:39:43;;;;;;;10.83;3.53;;;;;;;12.57;100.00;100765.72;5052740;28;20454;-70
2022/10/02 07:42:28;;;;;;;8.63;3.70;;;;;;;12.59;100.00;100774.34;5051370;28;20497;-71
2022/10/02 07:45:19;;;;;;;9.30;4.13;;;;;;;12.68;100.00;100782.56;5049905;28;20521;-75
2022/10/02 07:48:14;;;;;;;5.90;2.73;;;;;;;12.77;100.00;100786.13;5032127;28;20493;-71
2022/10/02 07:50:52;;;;;;;13.73;4.20;;;;;;;12.90;100.00;100775.50;5053265;28;20991;-70
2022/10/02 07:53:27;;;;;;;13.33;5.00;;;;;;;12.92;100.00;100773.25;5051721;28;21053;-69
2022/10/02 07:55:55;;;;;;;11.37;3.70;;;;;;;12.97;100.00;100778.56;5054279;28;20431;-70
2022/10/02 07:58:32;;;;;;;13.63;3.80;;;;;;;12.95;100.00;100775.38;5051253;28;20458;-70
2022/10/02 08:01:03;;;;;;;7.57;3.43;;;;;;;13.08;100.00;100780.69;5049438;28;20458;-71
2022/10/02 08:03:34;;;;;;;9.00;3.90;;;;;;;13.23;100.00;100784.94;5049557;28;20483;-71
2022/10/02 08:06:02;;;;;;;9.07;3.63;;;;;;;13.27;100.00;100788.66;5052998;28;20457;-72
2022/10/02 08:08:37;;;;;;;6.73;3.30;;;;;;;13.28;100.00;100779.41;5054296;28;20457;-73
2022/10/02 08:11:10;;;;;;;15.43;3.53;;;;;;;13.33;100.00;100781.16;5035589;28;20431;-72
2022/10/02 08:13:40;;;;;;;8.30;3.60;;;;;;;13.47;100.00;100790.03;5045239;28;20990;-71
2022/10/02 08:16:09;;;;;;;10.20;3.67;;;;;;;13.54;100.00;100782.19;5049669;28;20828;-71
2022/10/02 08:18:39;;;;;;;8.07;3.70;;;;;;;13.63;100.00;100779.47;5050140;28;20458;-72
2022/10/02 08:21:12;;;;;;;11.27;3.80;;;;;;;13.73;100.00;100767.50;5054594;28;20438;-71
2022/10/02 08:23:46;;;;;;;10.67;4.17;;;;;;;13.81;100.00;100777.59;5052626;28;20994;-71
2022/10/02 08:26:18;;;;;;;6.20;3.03;;;;;;;13.87;100.00;100779.88;5042531;28;20486;-71
2022/10/02 08:28:51;;;;;;;6.77;3.20;;;;;;;13.95;100.00;100774.75;5052397;28;20959;-72
2022/10/02 08:31:19;;;;;;;11.63;3.07;;;;;;;14.05;100.00;100774.44;5051285;28;20462;-72
2022/10/02 08:33:45;;;;;;;7.40;3.70;;;;;;;13.96;100.00;100773.63;5051618;28;20461;-72
2022/10/02 08:36:28;;;;;;;10.30;4.00;;;;;;;14.15;100.00;100768.66;5052862;28;20466;-72
2022/10/02 08:39:08;;;;;;;6.87;3.07;;;;;;;14.22;100.00;100779.91;5053561;28;20458;-72
2022/10/02 08:42:24;;;;;;;12.23;3.53;;;;;;;14.32;100.00;100776.84;5052337;28;20461;-73
2022/10/02 08:45:32;;;;;;;6.27;2.63;;;;;;;14.49;100.00;100775.25;5047545;28;20462;-72
2022/10/02 08:48:48;;;;;;;8.20;3.07;;;;;;;14.64;100.00;100758.38;5033753;28;20478;-72
2022/10/02 08:52:00;;;;;;;6.33;2.60;;;;;;;14.80;100.00;100758.69;5052648;28;20465;-72
2022/10/02 08:54:58;;;;;;;8.03;2.73;;;;;;;14.76;100.00;100763.97;5050621;28;20462;-72
2022/10/02 08:57:49;;;;;;;6.47;2.90;;;;;;;14.87;100.00;100767.97;5049151;28;20450;-72
2022/10/02 09:00:24;;;;;;;9.90;3.57;;;;;;;14.97;99.85;100775.00;5051227;28;20462;-72
2022/10/02 09:03:28;;;;;;;7.37;2.97;;;;;;;15.07;98.08;100765.66;5050283;28;20525;-72
2022/10/02 09:06:41;;;;;;;11.53;3.00;;;;;;;15.00;97.91;100765.34;5031103;28;20870;-71
2022/10/02 09:09:41;;;;;;;7.50;2.77;;;;;;;15.03;97.79;100770.97;5045327;28;20442;-70
2022/10/02 09:12:37;;;;;;;6.20;2.40;;;;;;;15.14;97.91;100774.94;5051183;28;20991;-72
2022/10/02 09:15:15;;;;;;;9.07;3.33;;;;;;;15.24;98.63;100781.16;5051259;28;20490;-72
2022/10/02 09:17:48;;;;;;;6.13;2.50;;;;;;;15.33;98.65;100785.44;5050052;28;20464;-70
2022/10/02 09:20:41;;;;;;;15.23;2.57;;;;;;;15.24;97.78;100779.22;5050547;28;20458;-72
2022/10/02 09:23:55;;;;;;;7.10;2.50;;;;;;;15.20;96.90;100785.69;5047991;28;20486;-72
2022/10/02 09:26:50;;;;;;;8.57;3.43;;;;;;;15.18;96.83;100777.78;5047149;28;20465;-71
2022/10/02 09:29:40;;;;;;;15.03;3.00;;;;;;;15.25;97.48;100766.38;5032855;28;20802;-71
2022/10/02 09:32:50;;;;;;;6.50;3.57;;;;;;;15.21;96.30;100754.53;5051584;28;20489;-71
2022/10/02 09:35:41;;;;;;;7.70;3.40;;;;;;;15.32;95.63;100753.84;5048605;28;20802;-71
2022/10/02 09:38:44;;;;;;;5.20;2.50;;;;;;;15.37;96.67;100753.66;5047086;28;20462;-71
2022/10/02 09:41:58;;;;;;;11.53;2.83;;;;;;;15.45;96.42;100743.81;5051714;28;20470;-71
2022/10/02 09:44:55;;;;;;;6.10;2.20;;;;;;;15.65;94.74;100731.34;5034689;28;20486;-72
2022/10/02 09:47:43;;;;;;;5.83;2.47;;;;;;;15.78;93.38;100735.75;5056327;28;20474;-71
2022/10/02 09:50:33;;;;;;;9.43;2.50;;;;;;;15.80;93.85;100743.59;5056024;28;21012;-72
2022/10/02 09:53:32;;;;;;;9.10;2.70;;;;;;;15.80;93.71;100755.31;5052199;28;21068;-72
2022/10/02 09:56:23;;;;;;;5.90;2.40;;;;;;;15.87;93.00;100752.88;5056327;28;20426;-72
2022/10/02 09:59:29;;;;;;;6.70;2.50;;;;;;;15.83;91.65;100751.94;5053393;28;20492;-73
2022/10/02 10:02:19;;;;;;;6.70;2.07;;;;;;;15.66;92.61;100752.06;5056260;28;20470;-72
2022/10/02 10:05:07;;;;;;;7.33;1.87;;;;;;;15.47;94.22;100751.66;5036817;28;20427;-73
2022/10/02 10:08:17;;;;;;;13.70;2.77;;;;;;;15.16;97.81;100780.06;5053173;28;20466;-72
2022/10/02 10:10:59;;;;;;;9.17;1.80;;;;;;;14.76;100.00;100760.47;5053996;28;20458;-71
2022/10/02 10:14:00;;;;;;;7.43;2.50;;;;;;;14.44;100.00;100756.31;5054479;28;20492;-71
2022/10/02 10:17:07;;;;;;;6.57;1.70;;;;;;;14.19;100.00;100766.09;5053726;28;20460;-72
2022/10/02 10:20:02;;;;;;;11.80;2.30;;;;;;;14.05;100.00;100758.91;5013725;28;20456;-71
2022/10/02 10:23:05;;;;;;;4.73;2.20;;;;;;;14.05;100.00;100766.25;5053542;28;20470;-71
2022/10/02 10:25:59;;;;;;;3.90;1.50;;;;;;;14.18;100.00;100776.19;5051677;28;20478;-71
2022/10/02 10:28:50;;;;;;;8.83;2.90;;;;;;;14.24;100.00;100772.19;5044914;28;20474;-72
2022/10/02 10:32:01;;;;;;;7.80;2.57;;;;;;;14.19;100.00;100783.25;5050154;28;20457;-72
2022/10/02 10:34:53;;;;;;;6.60;2.00;;;;;;;14.22;100.00;100785.34;5050632;28;20473;-72
2022/10/02 10:40:37;;;;;;;4.07;1.33;;;;;;;14.22;100.00;100790.00;5048738;28;20563;-72
2022/10/02 10:43:40;;;;;;;15.23;2.27;;;;;;;14.27;100.00;100785.19;5047511;28;20521;-72
2022/10/02 10:46:35;;;;;;;6.90;1.90;;;;;;;14.27;100.00;100784.38;5050686;28;20460;-72
2022/10/02 10:49:19;;;;;;;4.17;1.63;;;;;;;14.25;100.00;100784.69;5039349;28;20454;-72
2022/10/02 10:51:53;;;;;;;9.03;1.93;;;;;;;14.35;100.00;100778.13;5049255;28;20481;-72
2022/10/02 10:54:43;;;;;;;12.93;1.73;;;;;;;14.41;100.00;100787.72;5045193;28;20458;-72
2022/10/02 10:57:17;;;;;;;6.23;1.97;;;;;;;14.53;100.00;100781.69;5053313;28;20423;-72
2022/10/02 11:00:11;;;;;;;4.70;1.60;;;;;;;14.67;100.00;100784.22;5049949;28;20882;-71
2022/10/02 11:03:07;;;;;;;9.30;2.60;;;;;;;14.60;100.00;100774.59;5047473;28;20482;-72
2022/10/02 11:06:03;;;;;;;5.30;2.00;;;;;;;14.48;100.00;100770.91;5048597;28;20508;-71
2022/10/02 11:09:03;;;;;;;9.23;2.53;;;;;;;14.20;100.00;100776.66;5039905;28;20486;-71
2022/10/02 11:11:38;;;;;;;4.70;2.00;;;;;;;13.92;100.00;100778.91;5046377;28;20469;-71
2022/10/02 11:14:22;;;;;;;5.40;1.60;;;;;;;13.83;100.00;100775.38;5050788;28;20455;-70
2022/10/02 11:17:16;;;;;;;5.77;2.07;;;;;;;13.73;100.00;100773.75;5048720;28;20462;-69
2022/10/02 11:19:56;;;;;;;6.10;2.50;;;;;;;13.60;100.00;100777.41;5047546;28;20450;-69
2022/10/02 11:22:41;;;;;;;6.87;1.90;;;;;;;13.55;100.00;100761.22;5049144;28;21072;-70
2022/10/02 11:25:22;;;;;;;8.57;2.53;;;;;;;13.72;100.00;100755.78;5045050;28;20955;-69
2022/10/02 11:28:11;;;;;;;17.40;3.50;;;;;;;14.99;100.00;100761.81;5048838;28;20849;-70
2022/10/02 11:30:48;;;;;;;6.63;3.00;;;;;;;16.67;100.00;100756.53;5050289;28;20458;-70
2022/10/02 11:33:40;;;;;;;9.17;3.50;;;;;;;18.30;94.49;100763.69;5050535;28;20490;-70
2022/10/02 11:36:40;;;;;;;8.27;3.57;;;;;;;19.33;82.22;100770.31;5054222;28;20508;-70
2022/10/02 11:39:15;;;;;;;4.80;1.70;;;;;;;18.86;81.67;100774.66;5054273;28;20990;-70
2022/10/02 11:42:15;;;;;;;4.73;2.07;;;;;;;19.78;81.09;100775.31;5054760;28;20477;-70
2022/10/02 11:45:02;;;;;;;4.07;1.47;;;;;;;20.34;74.10;100768.63;5050669;28;20457;-70
2022/10/02 11:48:07;;;;;;;5.27;1.70;;;;;;;20.62;75.56;100776.69;5054539;28;21017;-70
2022/10/02 11:51:01;;;;;;;5.33;1.70;;;;;;;19.71;74.81;100772.41;5045520;28;20959;-71
2022/10/02 11:53:47;;;;;;;5.43;1.60;;;;;;;19.73;75.09;100766.56;5052172;28;20478;-70
2022/10/02 11:56:28;;;;;;;7.37;1.67;;;;;;;19.77;76.57;100770.97;5050839;28;20458;-70
2022/10/02 11:59:12;;;;;;;3.97;1.27;;;;;;;20.08;72.07;100767.31;5054561;28;20430;-70
2022/10/02 12:01:44;;;;;;;4.73;1.80;;;;;;;20.62;69.37;100771.16;5054492;28;20458;-70
2022/10/02 12:04:25;;;;;;;4.53;1.73;;;;;;;20.22;71.44;100761.31;5054804;28;20437;-71
2022/10/02 12:07:05;;;;;;;11.53;2.00;;;;;;;19.32;72.98;100769.53;5053498;28;20856;-71
2022/10/02 12:09:43;;;;;;;3.50;0.93;;;;;;;18.97;73.98;100768.63;5054377;28;20426;-71
2022/10/02 12:12:24;;;;;;;5.60;1.60;;;;;;;18.61;75.68;100767.66;5054322;28;20461;-71
2022/10/02 12:14:59;;;;;;;6.90;1.80;;;;;;;17.88;80.01;100780.50;5054308;28;20430;-71
2022/10/02 12:17:51;;;;;;;4.97;1.20;;;;;;;18.17;79.02;100775.84;5054327;28;20472;-70
2022/10/02 12:29:24;;;;;;;4.37;1.10;;;;;;;17.79;74.73;100779.81;5053875;28;20507;-70